Time;durP1;ratioP1;P1;durP2;ratioP2;P2;SDS_P1;SDS_P2;PMS_P1;PMS_P2;Temp;Humidity;BMP_temperature;BMP_pressure;BME280_temperature;BME280_humidity;BME280_pressure;Samples;Min_cycle;Max_cycle;Signal;HPM_P1;HPM_P2
2022/03/11 00:01:51;;;;;;;11.63;4.47;;;10.10;89.70;;;;;;5014582;28;20049;-40
2022/03/11 00:04:17;;;;;;;8.95;4.18;;;10.00;89.70;;;;;;5014429;28;20495;-40
2022/03/11 00:06:42;;;;;;;7.30;3.70;;;10.00;89.70;;;;;;5027720;28;20056;-53
2022/03/11 00:09:08;;;;;;;8.15;4.50;;;10.00;89.50;;;;;;5034238;28;20025;-40
2022/03/11 00:11:33;;;;;;;10.23;5.13;;;10.00;89.70;;;;;;5034178;28;20034;-40
2022/03/11 00:14:00;;;;;;;8.10;4.25;;;9.90;89.90;;;;;;5033787;28;20046;-40
2022/03/11 00:16:26;;;;;;;17.58;4.75;;;9.90;89.90;;;;;;5034244;28;20111;-42
2022/03/11 00:18:52;;;;;;;9.70;4.47;;;9.90;90.30;;;;;;5034002;28;20068;-40
2022/03/11 00:21:17;;;;;;;8.55;4.28;;;9.90;90.00;;;;;;5033983;28;20103;-40
2022/03/11 00:23:43;;;;;;;11.32;5.20;;;9.90;90.00;;;;;;5033667;28;20075;-39
2022/03/11 00:26:09;;;;;;;12.18;5.78;;;9.90;90.10;;;;;;5033815;28;20043;-36
2022/03/11 00:28:36;;;;;;;11.98;5.10;;;9.90;90.00;;;;;;5033828;28;20029;-39
2022/03/11 00:31:02;;;;;;;8.70;4.53;;;9.80;90.10;;;;;;5033628;28;20486;-38
2022/03/11 00:33:27;;;;;;;12.32;4.90;;;9.80;90.10;;;;;;5033809;28;20072;-40
2022/03/11 00:35:53;;;;;;;21.60;5.13;;;9.80;90.20;;;;;;5029185;28;20057;-39
2022/03/11 00:38:19;;;;;;;10.18;4.47;;;9.80;90.00;;;;;;5023428;28;20030;-35
2022/03/11 00:40:45;;;;;;;10.10;5.57;;;9.80;90.10;;;;;;5014459;28;20088;-38
2022/03/11 00:43:10;;;;;;;9.75;5.90;;;9.80;90.10;;;;;;5030434;28;20033;-44
2022/03/11 00:45:36;;;;;;;9.75;5.00;;;9.70;90.10;;;;;;5023609;28;20034;-38
2022/03/11 00:48:02;;;;;;;10.93;5.18;;;9.70;90.20;;;;;;5014010;28;20026;-39
2022/03/11 00:50:27;;;;;;;9.60;4.22;;;9.60;90.10;;;;;;5017576;28;20406;-48
2022/03/11 00:52:53;;;;;;;9.02;4.57;;;9.70;90.20;;;;;;5013533;28;20068;-37
2022/03/11 00:55:18;;;;;;;13.52;5.70;;;9.70;90.30;;;;;;5029884;28;20398;-37
2022/03/11 00:57:44;;;;;;;8.50;4.43;;;9.70;90.20;;;;;;5032365;28;20021;-38
2022/03/11 01:00:11;;;;;;;10.68;4.90;;;9.60;90.20;;;;;;5033245;28;20089;-37
2022/03/11 01:02:38;;;;;;;10.95;5.72;;;9.60;90.20;;;;;;5033263;28;20066;-38
2022/03/11 01:05:06;;;;;;;9.95;4.80;;;9.50;90.60;;;;;;5033511;28;20381;-38
2022/03/11 01:07:32;;;;;;;8.23;4.57;;;9.60;90.30;;;;;;5033326;28;20527;-38
2022/03/11 01:09:58;;;;;;;10.57;4.50;;;9.50;90.30;;;;;;5033372;28;20390;-39
2022/03/11 01:12:23;;;;;;;12.98;5.15;;;9.50;90.30;;;;;;5033018;28;20040;-39
2022/03/11 01:14:49;;;;;;;12.68;5.28;;;9.50;90.40;;;;;;5032481;28;20046;-38
2022/03/11 01:17:15;;;;;;;13.25;5.07;;;9.50;90.40;;;;;;5018835;28;20026;-39
2022/03/11 01:19:41;;;;;;;9.98;5.25;;;9.40;90.40;;;;;;5013167;28;20076;-37
2022/03/11 01:22:07;;;;;;;13.55;5.45;;;9.40;90.30;;;;;;5013259;28;20422;-37
2022/03/11 01:24:33;;;;;;;8.57;5.03;;;9.40;90.40;;;;;;5013442;28;20045;-36
2022/03/11 01:26:59;;;;;;;13.15;5.38;;;9.40;90.40;;;;;;5013219;28;20034;-38
2022/03/11 01:29:25;;;;;;;9.77;5.22;;;9.30;90.40;;;;;;5013052;28;20030;-38
2022/03/11 01:31:51;;;;;;;10.25;5.10;;;9.40;90.30;;;;;;5013575;28;20084;-36
2022/03/11 01:34:17;;;;;;;10.70;4.18;;;9.30;90.30;;;;;;5013082;28;20076;-41
2022/03/11 01:36:43;;;;;;;11.50;5.97;;;9.30;90.50;;;;;;5013117;28;20030;-37
2022/03/11 01:41:53;;;;;;;13.43;5.88;;;9.20;90.50;;;;;;5013293;28;20048;-37
2022/03/11 01:44:19;;;;;;;10.27;4.90;;;9.20;90.50;;;;;;5012928;28;20493;-39
2022/03/11 01:46:44;;;;;;;8.52;4.45;;;9.10;90.50;;;;;;5032188;28;20100;-63
2022/03/11 01:49:11;;;;;;;13.27;4.97;;;9.10;90.40;;;;;;5031981;28;20053;-44
2022/03/11 01:51:42;;;;;;;13.43;6.03;;;9.10;90.30;;;;;;5032812;28;20025;-38
2022/03/11 01:54:08;;;;;;;10.73;5.65;;;9.20;90.40;;;;;;5032905;28;20034;-39
2022/03/11 01:56:35;;;;;;;7.75;4.70;;;9.10;90.50;;;;;;5026812;28;20021;-39
2022/03/11 01:59:02;;;;;;;10.20;5.67;;;9.10;90.50;;;;;;5015240;28;20026;-39
2022/03/11 02:01:28;;;;;;;9.80;5.53;;;9.10;90.40;;;;;;5012844;28;20404;-37
2022/03/11 02:03:54;;;;;;;12.02;5.03;;;9.00;90.50;;;;;;5013645;28;20065;-39
2022/03/11 02:06:20;;;;;;;10.60;5.05;;;9.00;90.50;;;;;;5013065;28;20104;-39
2022/03/11 02:08:46;;;;;;;10.05;5.18;;;9.00;90.50;;;;;;5012696;28;20044;-37
2022/03/11 02:11:11;;;;;;;11.15;5.68;;;9.00;90.50;;;;;;5017396;28;20021;-37
2022/03/11 02:13:43;;;;;;;12.05;5.85;;;8.90;90.60;;;;;;5032374;28;20037;-37
2022/03/11 02:16:14;;;;;;;9.63;4.93;;;8.90;90.60;;;;;;5028830;28;20501;-39
2022/03/11 02:18:41;;;;;;;12.23;5.13;;;8.90;90.50;;;;;;5014089;28;20034;-38
2022/03/11 02:21:09;;;;;;;9.82;5.00;;;8.90;90.50;;;;;;5021913;28;20068;-49
2022/03/11 02:23:44;;;;;;;;;;;8.90;90.50;;;;;;5015730;28;20053;-46
2022/03/11 02:26:09;;;;;;;9.70;5.07;;;8.90;90.50;;;;;;5016534;28;19909;-40
2022/03/11 02:28:35;;;;;;;12.77;5.13;;;8.80;90.50;;;;;;5016441;28;20029;-39
2022/03/11 02:31:01;;;;;;;13.40;5.35;;;8.80;90.70;;;;;;5028746;28;20394;-40
2022/03/11 02:33:27;;;;;;;11.45;6.15;;;8.80;90.70;;;;;;5036186;28;20486;-52
2022/03/11 02:35:53;;;;;;;11.73;5.20;;;8.80;90.60;;;;;;5023927;28;20018;-39
2022/03/11 02:38:19;;;;;;;17.83;5.88;;;8.70;90.60;;;;;;5016133;28;20092;-40
2022/03/11 02:40:45;;;;;;;9.85;5.07;;;8.70;90.60;;;;;;5024039;28;20385;-39
2022/03/11 02:43:10;;;;;;;9.80;4.80;;;8.70;90.60;;;;;;5033815;28;20505;-37
2022/03/11 02:45:36;;;;;;;10.35;5.10;;;8.60;90.80;;;;;;5030589;28;20072;-39
2022/03/11 02:48:02;;;;;;;11.80;5.60;;;8.60;90.70;;;;;;5035720;28;20532;-38
2022/03/11 02:50:27;;;;;;;10.05;4.95;;;8.60;90.80;;;;;;5034183;28;20040;-39
2022/03/11 02:52:53;;;;;;;10.02;5.25;;;8.60;90.80;;;;;;5035586;28;20029;-38
2022/03/11 02:55:18;;;;;;;13.43;6.05;;;8.60;90.80;;;;;;5035746;28;20094;-39
2022/03/11 02:57:44;;;;;;;14.32;5.30;;;8.60;90.80;;;;;;5035672;28;20033;-37
2022/03/11 03:00:10;;;;;;;11.20;4.57;;;8.50;90.80;;;;;;5034336;28;20060;-38
2022/03/11 03:02:36;;;;;;;11.38;5.60;;;8.50;90.90;;;;;;5025779;28;20435;-39
2022/03/11 03:05:02;;;;;;;10.80;5.53;;;8.50;90.90;;;;;;5018302;28;20025;-39
2022/03/11 03:07:28;;;;;;;9.68;5.03;;;8.40;90.90;;;;;;5015669;28;20030;-40
2022/03/11 03:09:53;;;;;;;10.00;5.00;;;8.40;90.90;;;;;;5015750;28;20382;-38
2022/03/11 03:12:19;;;;;;;11.65;5.20;;;8.40;91.00;;;;;;5025953;28;20041;-37
2022/03/11 03:14:45;;;;;;;11.60;5.00;;;8.40;91.20;;;;;;5032759;28;20045;-43
2022/03/11 03:17:10;;;;;;;9.88;5.38;;;8.40;90.90;;;;;;5027830;28;20017;-53
2022/03/11 03:19:36;;;;;;;16.33;5.82;;;8.40;90.80;;;;;;5015814;28;20017;-38
2022/03/11 03:22:03;;;;;;;8.25;5.20;;;8.40;90.80;;;;;;5021938;28;20367;-40
2022/03/11 03:24:29;;;;;;;12.13;4.85;;;8.40;90.80;;;;;;5035170;28;20484;-40
2022/03/11 03:26:56;;;;;;;7.38;4.45;;;8.40;90.80;;;;;;5033419;28;20038;-38
2022/03/11 03:29:22;;;;;;;11.70;5.03;;;8.40;90.80;;;;;;5034364;28;20057;-38
2022/03/11 03:31:48;;;;;;;11.07;5.18;;;8.40;90.90;;;;;;5033824;28;20394;-39
2022/03/11 03:34:13;;;;;;;13.63;5.60;;;8.30;90.80;;;;;;5034892;28;20021;-38
2022/03/11 03:36:39;;;;;;;8.80;4.80;;;8.30;90.80;;;;;;5033645;28;20034;-39
2022/03/11 03:39:05;;;;;;;9.27;5.35;;;8.30;91.00;;;;;;5025142;28;20048;-38
2022/03/11 03:41:30;;;;;;;14.90;5.72;;;8.20;91.00;;;;;;5017959;28;20022;-38
2022/03/11 03:43:56;;;;;;;9.32;5.25;;;8.20;91.10;;;;;;5018308;28;20029;-38
2022/03/11 03:46:21;;;;;;;10.55;5.10;;;8.20;91.10;;;;;;5033497;28;20395;-75
2022/03/11 03:48:47;;;;;;;14.02;5.70;;;8.10;91.30;;;;;;5034956;28;20029;-40
2022/03/11 03:51:13;;;;;;;9.90;4.85;;;8.00;91.50;;;;;;5034498;28;20036;-38
2022/03/11 03:53:38;;;;;;;10.50;5.40;;;8.10;91.20;;;;;;5034245;28;20029;-39
2022/03/11 03:56:04;;;;;;;12.00;4.80;;;8.00;91.50;;;;;;5031435;28;20022;-40
2022/03/11 03:58:30;;;;;;;11.27;5.10;;;8.00;91.30;;;;;;5015099;28;20026;-39
2022/03/11 04:00:55;;;;;;;11.35;5.05;;;8.00;91.30;;;;;;5014646;28;20065;-57
2022/03/11 04:03:21;;;;;;;9.88;5.43;;;8.00;91.30;;;;;;5014599;28;20550;-39
2022/03/11 04:05:47;;;;;;;10.93;4.75;;;7.90;91.40;;;;;;5014645;28;20084;-39
2022/03/11 04:08:12;;;;;;;10.60;4.95;;;7.90;91.40;;;;;;5018517;28;20030;-39
2022/03/11 04:10:39;;;;;;;12.25;5.30;;;7.90;91.50;;;;;;5028581;28;20033;-39
2022/03/11 04:13:04;;;;;;;14.40;5.28;;;7.80;91.60;;;;;;5034101;28;20475;-42
2022/03/11 04:15:31;;;;;;;10.60;5.10;;;7.80;91.60;;;;;;5033917;28;20044;-40
2022/03/11 04:17:56;;;;;;;11.07;5.13;;;7.70;91.70;;;;;;5034172;28;20083;-37
2022/03/11 04:20:22;;;;;;;12.27;5.20;;;7.70;91.80;;;;;;5034337;28;20484;-39
2022/03/11 04:22:48;;;;;;;11.23;5.25;;;7.70;92.00;;;;;;5033977;28;20048;-38
2022/03/11 04:25:14;;;;;;;10.45;4.55;;;7.70;91.80;;;;;;5033234;28;20069;-37
2022/03/11 04:27:41;;;;;;;12.05;5.25;;;7.60;92.00;;;;;;5034196;28;20108;-39
2022/03/11 04:30:07;;;;;;;8.93;4.82;;;7.60;92.00;;;;;;5033798;28;20036;-39
2022/03/11 04:32:33;;;;;;;14.88;5.38;;;7.60;91.90;;;;;;5034033;28;20116;-39
2022/03/11 04:34:59;;;;;;;10.25;4.95;;;7.50;92.10;;;;;;5023600;28;20479;-37
2022/03/11 04:37:24;;;;;;;12.15;5.68;;;7.50;92.00;;;;;;5013954;28;20505;-42
2022/03/11 04:39:50;;;;;;;13.70;4.35;;;7.50;92.10;;;;;;5013940;28;20033;-38
2022/03/11 04:42:15;;;;;;;9.57;4.88;;;7.50;92.10;;;;;;5013571;28;20520;-38
2022/03/11 04:44:41;;;;;;;10.55;4.65;;;7.40;92.20;;;;;;5013820;28;20032;-53
2022/03/11 04:47:07;;;;;;;8.95;4.75;;;7.40;92.20;;;;;;5013904;28;20026;-39
2022/03/11 04:49:32;;;;;;;9.85;5.22;;;7.40;92.30;;;;;;5013804;28;20026;-39
2022/03/11 04:51:58;;;;;;;10.45;4.88;;;7.30;92.40;;;;;;5013667;28;20030;-39
2022/03/11 04:54:24;;;;;;;13.45;5.03;;;7.30;92.50;;;;;;5012847;28;20064;-39
2022/03/11 04:56:49;;;;;;;9.52;4.55;;;7.30;92.60;;;;;;5013698;28;20014;-36
2022/03/11 04:59:33;;;;;;;13.55;5.30;;;7.30;92.60;;;;;;5013699;28;20386;-40
2022/03/11 05:01:59;;;;;;;9.30;4.72;;;7.20;92.70;;;;;;5013558;28;20054;-37
2022/03/11 05:04:24;;;;;;;11.88;5.50;;;7.20;92.80;;;;;;5019213;28;20065;-43
2022/03/11 05:06:50;;;;;;;10.80;5.30;;;7.10;92.90;;;;;;5032945;28;20029;-37
2022/03/11 05:09:15;;;;;;;10.43;4.65;;;7.10;92.90;;;;;;5033108;28;20022;-38
2022/03/11 05:11:41;;;;;;;9.88;4.60;;;7.10;93.00;;;;;;5033146;28;20029;-39
2022/03/11 05:14:07;;;;;;;11.60;5.25;;;7.00;93.10;;;;;;5021275;28;20563;-40
2022/03/11 05:16:32;;;;;;;10.82;4.75;;;7.00;93.20;;;;;;5013429;28;20490;-39
2022/03/11 05:18:58;;;;;;;18.75;5.38;;;7.00;93.20;;;;;;5022689;28;20026;-42
2022/03/11 05:21:23;;;;;;;13.95;5.30;;;7.00;93.20;;;;;;5033273;28;20035;-37
2022/03/11 05:23:49;;;;;;;14.18;4.88;;;6.90;93.50;;;;;;5033242;28;20147;-46
2022/03/11 05:26:28;;;;;;;12.18;5.20;;;6.90;93.40;;;;;;5025116;28;20025;-38
2022/03/11 05:28:57;;;;;;;10.95;4.88;;;6.90;93.40;;;;;;5017239;28;20483;-39
2022/03/11 05:31:22;;;;;;;;;;;6.90;93.50;;;;;;5013420;28;20026;-40
2022/03/11 05:33:49;;;;;;;13.43;5.40;;;6.90;93.60;;;;;;5026028;28;20376;-39
2022/03/11 05:36:15;;;;;;;9.23;4.50;;;6.80;93.70;;;;;;5021742;28;20064;-41
2022/03/11 05:38:41;;;;;;;9.27;4.32;;;6.70;93.80;;;;;;5021019;28;20083;-54
2022/03/11 05:41:06;;;;;;;15.15;5.53;;;6.70;93.90;;;;;;5013026;28;20498;-37
2022/03/11 05:43:32;;;;;;;8.95;4.65;;;6.80;93.80;;;;;;5046626;28;20121;-38
2022/03/11 05:45:57;;;;;;;11.00;4.35;;;6.70;93.90;;;;;;5032525;28;20509;-36
2022/03/11 05:48:23;;;;;;;12.90;5.40;;;6.70;94.00;;;;;;5032920;28;20079;-37
2022/03/11 05:50:49;;;;;;;16.55;4.75;;;6.70;94.00;;;;;;5032617;28;20437;-38
2022/03/11 05:53:15;;;;;;;9.90;4.82;;;6.60;94.10;;;;;;5033263;28;20018;-37
2022/03/11 05:55:41;;;;;;;11.93;4.82;;;6.70;94.10;;;;;;5036570;28;20013;-38
2022/03/11 05:58:06;;;;;;;13.18;5.25;;;6.70;94.20;;;;;;5035445;28;20099;-38
2022/03/11 06:00:32;;;;;;;14.57;5.47;;;6.60;94.20;;;;;;5036806;28;20025;-38
2022/03/11 06:02:58;;;;;;;9.23;4.88;;;6.70;94.20;;;;;;5036576;28;20494;-38
2022/03/11 06:05:24;;;;;;;11.00;4.40;;;6.60;94.40;;;;;;5036494;28;20390;-39
2022/03/11 06:07:49;;;;;;;10.18;4.95;;;6.60;94.40;;;;;;5036534;28;20067;-38
2022/03/11 06:10:15;;;;;;;9.85;5.05;;;6.60;94.40;;;;;;5036459;28;20022;-38
2022/03/11 06:12:41;;;;;;;11.95;4.70;;;6.60;94.50;;;;;;5034910;28;20107;-37
2022/03/11 06:15:14;;;;;;;10.48;5.30;;;6.60;94.50;;;;;;5036149;28;20053;-37
2022/03/11 06:17:40;;;;;;;14.77;4.75;;;6.60;94.60;;;;;;5036470;28;20029;-39
2022/03/11 06:20:08;;;;;;;18.45;5.20;;;6.60;94.70;;;;;;5030092;28;20018;-39
2022/03/11 06:22:37;;;;;;;10.15;4.70;;;6.60;94.70;;;;;;5029663;28;20036;-37
2022/03/11 06:25:06;;;;;;;13.10;5.03;;;6.60;94.70;;;;;;5030611;28;20036;-39
2022/03/11 06:27:32;;;;;;;16.02;5.32;;;6.60;94.80;;;;;;5024435;28;20493;-42
2022/03/11 06:29:57;;;;;;;11.73;5.35;;;6.60;94.90;;;;;;5035676;28;20029;-39
2022/03/11 06:32:23;;;;;;;10.02;4.75;;;6.60;94.90;;;;;;5036010;28;20025;-39
2022/03/11 06:34:48;;;;;;;7.53;4.10;;;6.60;94.90;;;;;;5034777;28;20080;-37
2022/03/11 06:37:17;;;;;;;12.95;5.80;;;6.70;94.80;;;;;;5033903;28;20017;-39
2022/03/11 06:39:43;;;;;;;12.23;5.28;;;6.60;95.00;;;;;;5036040;28;20025;-37
2022/03/11 06:42:08;;;;;;;10.75;4.75;;;6.70;94.90;;;;;;5035930;28;20548;-39
2022/03/11 06:44:34;;;;;;;8.88;4.45;;;6.70;95.00;;;;;;5029713;28;20100;-40
2022/03/11 06:46:59;;;;;;;9.48;4.75;;;6.80;95.00;;;;;;5016108;28;20030;-39
2022/03/11 06:49:25;;;;;;;12.10;5.15;;;6.80;94.90;;;;;;5027863;28;20021;-58
2022/03/11 06:51:51;;;;;;;8.35;4.75;;;6.90;95.00;;;;;;5027083;28;20429;-38
2022/03/11 06:54:16;;;;;;;9.68;4.97;;;6.90;94.90;;;;;;5025475;28;20029;-39
2022/03/11 06:56:42;;;;;;;9.23;4.63;;;7.00;94.90;;;;;;5021297;28;20496;-38
2022/03/11 06:59:08;;;;;;;16.70;4.85;;;7.00;95.00;;;;;;5034887;28;20041;-38
2022/03/11 07:01:34;;;;;;;14.40;4.93;;;7.00;95.00;;;;;;5015669;28;20022;-39
2022/03/11 07:04:01;;;;;;;9.80;4.88;;;7.00;95.00;;;;;;5015389;28;20155;-38
2022/03/11 07:06:27;;;;;;;16.05;5.80;;;7.10;94.90;;;;;;5015888;28;20036;-38
2022/03/11 07:08:53;;;;;;;11.98;4.82;;;7.20;94.90;;;;;;5016186;28;20498;-40
2022/03/11 07:11:37;;;;;;;7.57;4.43;;;7.20;95.00;;;;;;5025317;28;20030;-51
2022/03/11 07:14:03;;;;;;;8.65;4.82;;;7.20;94.80;;;;;;5018966;28;20036;-39
2022/03/11 07:16:28;;;;;;;16.20;5.68;;;7.30;94.80;;;;;;5027053;28;20466;-37
2022/03/11 07:18:54;;;;;;;11.45;5.97;;;7.40;94.90;;;;;;5035075;28;20029;-38
2022/03/11 07:21:19;;;;;;;12.23;4.90;;;7.40;94.60;;;;;;5033438;28;20036;-38
2022/03/11 07:23:46;;;;;;;12.75;5.65;;;7.50;94.60;;;;;;5035148;28;20145;-36
2022/03/11 07:26:12;;;;;;;12.95;5.32;;;7.50;94.60;;;;;;5026117;28;20033;-38
2022/03/11 07:28:37;;;;;;;9.00;5.00;;;7.50;94.60;;;;;;5017427;28;20041;-38
2022/03/11 07:31:03;;;;;;;10.45;5.38;;;7.60;94.60;;;;;;5023098;28;20466;-38
2022/03/11 07:33:29;;;;;;;12.50;6.47;;;7.60;94.60;;;;;;5030454;28;20041;-38
2022/03/11 07:35:54;;;;;;;12.40;4.65;;;7.70;94.60;;;;;;5034959;28;20030;-39
2022/03/11 07:38:20;;;;;;;10.80;5.03;;;7.70;94.70;;;;;;5022717;28;20105;-37
2022/03/11 07:40:46;;;;;;;13.68;5.70;;;7.80;94.60;;;;;;5016998;28;20506;-39
2022/03/11 07:43:13;;;;;;;16.85;6.60;;;7.80;94.40;;;;;;5033981;28;20090;-37
2022/03/11 07:45:39;;;;;;;11.20;5.75;;;7.90;94.50;;;;;;5031361;28;20036;-38
2022/03/11 07:48:05;;;;;;;16.85;6.22;;;8.00;94.50;;;;;;5034672;28;20021;-38
2022/03/11 07:50:32;;;;;;;9.77;5.40;;;8.00;94.20;;;;;;5034206;28;20029;-50
2022/03/11 07:52:57;;;;;;;12.18;5.53;;;8.10;94.30;;;;;;5029196;28;20034;-39
2022/03/11 07:55:23;;;;;;;12.00;5.35;;;8.10;94.10;;;;;;5032502;28;20071;-38
2022/03/11 07:57:48;;;;;;;14.15;6.25;;;8.10;94.20;;;;;;5033771;28;20096;-38
2022/03/11 08:00:15;;;;;;;9.32;5.50;;;8.20;94.40;;;;;;5032747;28;20504;-38
2022/03/11 08:02:40;;;;;;;17.60;6.38;;;8.30;94.10;;;;;;5021365;28;20034;-38
2022/03/11 08:05:14;;;;;;;20.58;5.55;;;8.30;94.00;;;;;;5014835;28;20072;-38
2022/03/11 08:07:39;;;;;;;21.38;6.72;;;8.30;94.20;;;;;;5022073;28;20030;-38
2022/03/11 08:10:05;;;;;;;11.43;5.63;;;8.40;94.10;;;;;;5015386;28;20076;-39
2022/03/11 08:12:31;;;;;;;15.15;6.35;;;8.40;94.10;;;;;;5026996;28;20104;-36
2022/03/11 08:14:57;;;;;;;15.18;5.50;;;8.50;94.00;;;;;;5033336;28;20041;-37
2022/03/11 08:17:42;;;;;;;13.73;6.22;;;8.50;94.10;;;;;;5032356;28;20427;-39
2022/03/11 08:20:09;;;;;;;12.40;6.00;;;8.50;94.50;;;;;;5030414;28;20034;-40
2022/03/11 08:22:34;;;;;;;16.00;6.07;;;8.70;94.00;;;;;;5023786;28;20026;-39
2022/03/11 08:25:00;;;;;;;13.32;6.03;;;8.80;93.80;;;;;;5013191;28;20461;-38
2022/03/11 08:27:26;;;;;;;11.82;5.72;;;8.90;93.70;;;;;;5014210;28;20477;-39
2022/03/11 08:29:51;;;;;;;25.17;6.90;;;8.90;93.80;;;;;;5016277;28;20084;-36
2022/03/11 08:32:17;;;;;;;10.32;5.53;;;9.00;93.90;;;;;;5026683;28;20402;-40
2022/03/11 08:34:42;;;;;;;22.25;6.35;;;9.10;93.50;;;;;;5015273;28;20025;-38
2022/03/11 08:37:08;;;;;;;11.32;5.30;;;9.10;93.30;;;;;;5020745;28;20018;-38
2022/03/11 08:39:34;;;;;;;16.33;6.65;;;9.10;93.60;;;;;;5027535;28;20044;-38
2022/03/11 08:41:59;;;;;;;16.05;5.88;;;9.10;93.50;;;;;;5027405;28;20477;-35
2022/03/11 08:44:25;;;;;;;17.50;6.32;;;9.20;93.30;;;;;;5023803;28;20105;-39
2022/03/11 08:46:51;;;;;;;13.88;6.65;;;9.20;93.50;;;;;;5018209;28;20022;-40
2022/03/11 08:49:16;;;;;;;15.00;6.38;;;9.30;93.50;;;;;;5018936;28;20498;-39
2022/03/11 08:51:43;;;;;;;13.38;6.60;;;9.40;93.30;;;;;;5023533;28;20022;-40
2022/03/11 08:54:09;;;;;;;18.88;7.50;;;9.50;93.20;;;;;;5023140;28;20424;-38
2022/03/11 08:56:34;;;;;;;14.68;7.65;;;9.50;93.40;;;;;;5030028;28;20022;-66
2022/03/11 08:59:00;;;;;;;14.57;7.28;;;9.60;93.40;;;;;;5013542;28;20026;-38
2022/03/11 09:01:26;;;;;;;14.52;7.15;;;9.70;93.30;;;;;;5032135;28;20032;-39
2022/03/11 09:03:52;;;;;;;22.20;6.95;;;9.70;93.40;;;;;;5023395;28;20488;-40
2022/03/11 09:06:17;;;;;;;18.63;6.90;;;9.90;93.50;;;;;;5022332;28;20065;-39
2022/03/11 09:08:44;;;;;;;14.93;6.90;;;10.10;92.90;;;;;;5026281;28;20026;-38
2022/03/11 09:11:10;;;;;;;20.90;7.43;;;10.20;92.80;;;;;;5017253;28;20013;-39
2022/03/11 09:13:36;;;;;;;11.93;6.05;;;10.30;92.80;;;;;;5026026;28;20120;-40
2022/03/11 09:16:02;;;;;;;15.85;8.15;;;10.30;93.00;;;;;;5046906;28;20640;-39
2022/03/11 09:18:27;;;;;;;12.55;6.07;;;10.30;92.70;;;;;;5032612;28;20033;-38
2022/03/11 09:20:55;;;;;;;14.95;7.00;;;10.20;92.70;;;;;;5022842;28;20390;-40
2022/03/11 09:23:21;;;;;;;15.37;8.90;;;10.30;93.30;;;;;;5030255;28;20029;-37
2022/03/11 09:25:46;;;;;;;20.98;7.75;;;10.40;92.70;;;;;;5027287;28;20649;-38
2022/03/11 09:28:12;;;;;;;14.05;7.03;;;10.40;92.70;;;;;;5017626;28;20037;-46
2022/03/11 09:30:37;;;;;;;16.08;7.05;;;10.40;93.20;;;;;;5033044;28;20022;-38
2022/03/11 09:33:03;;;;;;;20.40;7.15;;;10.50;92.70;;;;;;5032488;28;20363;-39
2022/03/11 09:35:29;;;;;;;23.17;7.25;;;10.60;92.60;;;;;;5032594;28;20017;-39
2022/03/11 09:37:55;;;;;;;17.88;7.13;;;10.60;93.00;;;;;;5024394;28;20163;-39
2022/03/11 09:40:21;;;;;;;18.35;7.85;;;10.70;92.70;;;;;;5018054;28;20029;-34
2022/03/11 09:42:50;;;;;;;12.10;7.20;;;10.80;92.60;;;;;;5020722;28;20057;-39
2022/03/11 09:45:18;;;;;;;22.77;8.65;;;10.90;92.60;;;;;;5019444;28;20083;-39
2022/03/11 09:47:45;;;;;;;18.90;8.40;;;10.90;92.70;;;;;;5023435;28;20025;-39
2022/03/11 09:50:11;;;;;;;20.15;7.93;;;10.90;92.80;;;;;;5028460;28;20025;-38
2022/03/11 09:52:36;;;;;;;19.92;7.07;;;11.00;92.60;;;;;;5026885;28;20022;-40
2022/03/11 09:55:02;;;;;;;26.73;7.45;;;11.20;92.80;;;;;;5012846;28;20014;-44
2022/03/11 09:57:28;;;;;;;16.15;7.88;;;11.20;92.30;;;;;;5024165;28;20068;-40
2022/03/11 09:59:54;;;;;;;15.15;7.00;;;11.20;92.80;;;;;;5025231;28;20458;-39
2022/03/11 10:02:19;;;;;;;22.50;8.75;;;11.30;92.40;;;;;;5026124;28;20030;-39
2022/03/11 10:04:57;;;;;;;21.45;7.55;;;11.30;93.10;;;;;;5026750;28;20022;-41
2022/03/11 10:07:31;;;;;;;17.02;7.30;;;11.40;93.00;;;;;;5023155;28;20026;-38
2022/03/11 10:10:09;;;;;;;14.35;7.72;;;11.60;92.40;;;;;;5031155;28;20489;-38
2022/03/11 10:12:45;;;;;;;17.85;7.93;;;11.60;92.10;;;;;;5032413;28;20028;-40
2022/03/11 10:15:12;;;;;;;16.52;6.93;;;11.60;92.70;;;;;;5031168;28;20141;-39
2022/03/11 10:17:42;;;;;;;19.15;8.05;;;11.60;92.30;;;;;;5029872;28;20100;-39
2022/03/11 10:20:13;;;;;;;23.05;7.28;;;11.60;92.40;;;;;;5022385;28;20028;-39
2022/03/11 10:22:40;;;;;;;12.82;7.72;;;11.60;92.60;;;;;;5022431;28;20038;-41
2022/03/11 10:25:13;;;;;;;14.35;7.57;;;11.70;93.30;;;;;;5022118;28;20521;-44
2022/03/11 10:27:52;;;;;;;18.40;8.60;;;11.90;92.50;;;;;;5029522;28;20486;-39
2022/03/11 10:30:18;;;;;;;17.17;7.03;;;12.00;92.30;;;;;;5029687;28;20474;-43
2022/03/11 10:32:54;;;;;;;16.52;7.38;;;12.00;92.50;;;;;;5025910;28;20105;-39
2022/03/11 10:35:28;;;;;;;22.48;8.18;;;12.00;93.00;;;;;;5015773;28;20160;-40
2022/03/11 10:37:59;;;;;;;21.98;7.80;;;12.20;92.70;;;;;;5029054;28;20076;-38
2022/03/11 10:40:26;;;;;;;18.70;8.75;;;12.40;92.10;;;;;;5034630;28;20148;-37
2022/03/11 10:43:16;;;;;;;15.52;7.75;;;12.30;92.30;;;;;;5035395;28;20029;-38
2022/03/11 10:45:52;;;;;;;13.93;7.95;;;12.10;92.40;;;;;;5034959;28;20079;-38
2022/03/11 10:48:19;;;;;;;16.27;8.68;;;12.00;92.40;;;;;;5031361;28;20045;-38
2022/03/11 10:50:45;;;;;;;21.38;8.23;;;11.90;92.60;;;;;;5032638;28;20033;-37
2022/03/11 10:53:12;;;;;;;19.80;8.32;;;12.10;92.70;;;;;;5030718;28;20512;-38
2022/03/11 10:55:41;;;;;;;13.20;7.03;;;12.20;92.60;;;;;;5026233;28;20030;-39
2022/03/11 10:58:07;;;;;;;15.93;7.93;;;12.20;92.60;;;;;;5027935;28;20379;-38
2022/03/11 11:00:39;;;;;;;19.75;8.02;;;12.30;93.20;;;;;;5025600;28;20025;-36
2022/03/11 11:03:08;;;;;;;16.58;7.68;;;12.50;92.40;;;;;;5024262;28;20506;-40
2022/03/11 11:05:34;;;;;;;19.23;8.38;;;12.70;92.50;;;;;;5024779;28;20521;-52
2022/03/11 11:08:01;;;;;;;19.23;8.63;;;12.90;92.60;;;;;;5019252;28;20026;-38
2022/03/11 11:10:29;;;;;;;17.55;7.85;;;13.10;92.30;;;;;;5033450;28;20517;-39
2022/03/11 11:12:55;;;;;;;;;;;13.30;92.30;;;;;;5036063;28;20364;-40
2022/03/11 11:15:21;;;;;;;14.23;7.65;;;13.30;91.90;;;;;;5035061;28;19917;-37
2022/03/11 11:17:49;;;;;;;20.25;8.43;;;13.30;91.80;;;;;;5035242;28;20026;-39
2022/03/11 11:20:38;;;;;;;15.90;8.82;;;13.20;92.00;;;;;;5035484;28;20359;-38
2022/03/11 11:23:06;;;;;;;20.83;9.20;;;13.10;92.60;;;;;;5030497;28;20041;-38
2022/03/11 11:25:34;;;;;;;16.30;8.55;;;13.10;92.40;;;;;;5015639;28;20041;-39
2022/03/11 11:28:10;;;;;;;;;;;13.20;92.20;;;;;;5015594;28;20149;-38
2022/03/11 11:30:37;;;;;;;16.65;8.18;;;13.30;92.10;;;;;;5015208;28;20004;-39
2022/03/11 11:33:03;;;;;;;19.95;7.88;;;13.40;92.30;;;;;;5015072;28;20045;-38
2022/03/11 11:35:30;;;;;;;20.83;8.45;;;13.50;92.10;;;;;;5015184;28;20033;-40
2022/03/11 11:37:58;;;;;;;16.70;5.80;;;13.50;92.20;;;;;;5015114;28;20080;-39
2022/03/11 11:40:47;;;;;;;17.90;7.93;;;13.60;92.60;;;;;;5027124;28;20287;-40
2022/03/11 11:43:28;;;;;;;21.15;9.32;;;13.70;92.10;;;;;;5032900;28;20037;-41
2022/03/11 11:46:03;;;;;;;24.50;9.45;;;13.70;92.20;;;;;;5033737;28;20041;-41
2022/03/11 11:48:52;;;;;;;19.10;8.95;;;13.80;92.30;;;;;;5025809;28;20034;-41
2022/03/11 11:51:44;;;;;;;19.10;9.65;;;14.10;92.20;;;;;;5023681;28;20045;-42
2022/03/11 11:54:12;;;;;;;17.30;8.40;;;14.40;91.90;;;;;;5024049;28;20525;-41
2022/03/11 11:56:37;;;;;;;;;;;14.60;91.70;;;;;;5034219;28;20029;-41
2022/03/11 11:59:18;;;;;;;18.00;8.27;;;14.70;91.40;;;;;;5029326;28;19909;-39
2022/03/11 12:01:53;;;;;;;20.10;9.00;;;14.70;91.40;;;;;;5032104;28;20021;-43
2022/03/11 12:04:33;;;;;;;22.27;8.88;;;14.60;91.60;;;;;;5033521;28;20095;-42
2022/03/11 12:07:10;;;;;;;15.70;8.38;;;14.60;91.70;;;;;;5022942;28;20080;-42
2022/03/11 12:09:39;;;;;;;18.13;8.85;;;14.70;91.30;;;;;;5034155;28;20056;-45
2022/03/11 12:12:30;;;;;;;16.10;8.63;;;14.70;91.20;;;;;;5021869;28;20113;-42
2022/03/11 12:15:04;;;;;;;19.40;8.38;;;14.60;91.50;;;;;;5014398;28;20141;-38
2022/03/11 12:17:41;;;;;;;16.38;9.25;;;14.60;91.40;;;;;;5015263;28;20037;-41
2022/03/11 12:20:23;;;;;;;23.70;8.88;;;14.40;91.60;;;;;;5012936;28;20090;-41
2022/03/11 12:22:52;;;;;;;17.00;8.35;;;14.40;91.70;;;;;;5024570;28;20422;-41
2022/03/11 12:25:22;;;;;;;21.38;10.35;;;14.40;91.20;;;;;;5026042;28;20038;-40
2022/03/11 12:28:16;;;;;;;16.42;8.88;;;14.40;91.40;;;;;;5014091;28;20062;-40
2022/03/11 12:30:42;;;;;;;22.42;8.75;;;14.50;91.50;;;;;;5012405;28;20037;-41
2022/03/11 12:33:16;;;;;;;19.48;9.15;;;14.70;91.70;;;;;;5013943;28;20112;-42
2022/03/11 12:35:42;;;;;;;22.15;10.02;;;14.90;91.60;;;;;;5014014;28;20030;-40
2022/03/11 12:38:15;;;;;;;16.55;8.27;;;15.10;91.10;;;;;;5026995;28;20036;-41
2022/03/11 12:40:42;;;;;;;17.67;8.93;;;15.20;90.90;;;;;;5033737;28;20033;-41
2022/03/11 12:43:09;;;;;;;17.90;9.00;;;15.40;90.80;;;;;;5033638;28;20103;-42
2022/03/11 12:45:34;;;;;;;21.13;8.50;;;15.20;90.70;;;;;;5033482;28;20100;-41
2022/03/11 12:48:00;;;;;;;15.52;8.38;;;15.10;91.30;;;;;;5015274;28;20124;-41
2022/03/11 12:50:26;;;;;;;24.38;9.02;;;15.10;90.70;;;;;;5013999;28;20034;-47
2022/03/11 12:52:56;;;;;;;20.85;9.20;;;15.10;90.50;;;;;;5013875;28;20026;-41